Aurora, Oregon
Current Conditions -  °F | °C
As of 6:44 AM on Friday 28 Nov 2014 (Local Time) from KUAO Reporting Station
Light Rain Light Rain  
Wind Chill: 11°   Ceiling: 2500
Heat Index: 11°   Visibility: 6mi
Dew Point: 10°   Wind: 14mph
Humidity: 93%   Direction: 190°S
Pressure: 29.68"   Gusts: 30mph
Location:  45.23°N, 122.76°W
Report Text: KUAO 281444Z AUTO 19012G26KT 6SM -RA BR FEW008 OVC025 11/10 A2968 RMK AO2 PK WND 19026/1438 P0001 T01110100
Loading
Personal Weather Stations






























Interactive Weather Map New forecast layout! Learn more

10-Day Weather Forecast

Advertisements
Track Severe Weather on mobile